Time;durP1;ratioP1;P1;durP2;ratioP2;P2;SDS_P1;SDS_P2;PMS_P1;PMS_P2;Temp;Humidity;BMP_temperature;BMP_pressure;BME280_temperature;BME280_humidity;BME280_pressure;Samples;Min_cycle;Max_cycle;Signal;HPM_P1;HPM_P2
2022/12/13 00:00:44;;;;;;;5.70;5.20;;;;;;;18.75;43.13;96708.44;4942822;28;20208;-89
2022/12/13 00:03:11;;;;;;;6.03;5.53;;;;;;;19.51;42.95;96839.59;4942113;28;20691;-89
2022/12/13 00:05:42;;;;;;;5.83;5.33;;;;;;;19.63;43.04;96870.50;4955477;28;20220;-87
2022/12/13 00:08:09;;;;;;;5.93;5.33;;;;;;;19.99;43.29;96914.78;4956757;28;20210;-89
2022/12/13 00:10:35;;;;;;;5.80;5.30;;;;;;;19.22;43.27;96792.91;4955786;28;20216;-89
2022/12/13 00:13:03;;;;;;;5.57;5.07;;;;;;;19.36;43.24;96806.06;4969138;28;20232;-89
2022/12/13 00:15:30;;;;;;;5.93;5.43;;;;;;;17.96;43.26;96558.69;4941967;28;20577;-89
2022/12/13 00:17:56;;;;;;;6.17;5.57;;;;;;;19.22;43.27;96786.97;4948472;28;20216;-89
2022/12/13 00:20:23;;;;;;;6.07;5.53;;;;;;;19.98;43.21;96907.94;4964721;28;20299;-88
2022/12/13 00:22:50;;;;;;;5.70;5.20;;;;;;;19.11;43.28;96762.88;4961232;28;20307;-88
2022/12/13 00:25:19;;;;;;;5.57;5.07;;;;;;;19.24;43.15;96782.75;4931043;28;20212;-89
2022/12/13 00:27:46;;;;;;;5.87;5.37;;;;;;;18.33;43.38;96647.03;4948405;28;20322;-89
2022/12/13 00:30:12;;;;;;;5.90;5.37;;;;;;;19.44;43.49;96819.84;4966649;28;20227;-88
2022/12/13 00:32:39;;;;;;;5.70;5.20;;;;;;;18.11;43.34;96597.25;4924042;28;20231;-89
2022/12/13 00:35:06;;;;;;;5.60;5.10;;;;;;;19.32;43.13;96797.47;4960532;28;20208;-89
2022/12/13 00:37:32;;;;;;;5.47;5.07;;;;;;;19.20;43.45;96791.16;4921021;28;20810;-88
2022/12/13 00:39:59;;;;;;;5.63;5.13;;;;;;;19.43;43.25;96813.91;4968173;28;20232;-89
2022/12/13 00:42:25;;;;;;;5.73;5.23;;;;;;;19.15;42.62;96772.31;4925559;28;20309;-88
2022/12/13 00:44:52;;;;;;;5.77;5.27;;;;;;;19.46;42.93;96819.09;4925017;29;20214;-86
2022/12/13 00:47:21;;;;;;;6.10;5.50;;;;;;;19.16;43.20;96758.78;4943812;28;20236;-89
2022/12/13 00:49:47;;;;;;;5.70;5.20;;;;;;;17.52;43.00;96521.00;4952329;28;20232;-89
2022/12/13 00:52:14;;;;;;;6.10;5.50;;;;;;;19.96;43.16;96897.72;4978097;28;20204;-88
2022/12/13 00:54:40;;;;;;;6.00;5.50;;;;;;;19.92;43.33;96895.91;4935974;28;20568;-88
2022/12/13 00:57:07;;;;;;;5.70;5.20;;;;;;;19.49;43.16;96818.28;4953857;28;20200;-89
2022/12/13 00:59:34;;;;;;;5.87;5.33;;;;;;;19.05;43.12;96739.81;4955915;28;20291;-88
2022/12/13 01:02:00;;;;;;;6.50;5.87;;;;;;;19.37;43.33;96788.28;4958404;28;20208;-88
2022/12/13 01:04:27;;;;;;;5.50;5.00;;;;;;;19.14;43.16;96745.16;4943640;28;20523;-89
2022/12/13 01:06:56;;;;;;;6.20;5.60;;;;;;;18.61;43.30;96658.84;4958111;28;20222;-88
2022/12/13 01:09:29;;;;;;;5.57;5.07;;;;;;;18.87;43.39;96708.75;4943035;28;20310;-88
2022/12/13 01:11:57;;;;;;;6.20;5.60;;;;;;;19.24;43.28;96754.72;4948154;28;20311;-89
2022/12/13 01:14:24;;;;;;;6.07;5.57;;;;;;;19.47;43.36;96792.78;4971782;28;20231;-88
2022/12/13 01:16:54;;;;;;;6.33;5.73;;;;;;;19.27;43.34;96760.81;4963206;28;20200;-89
2022/12/13 01:19:25;;;;;;;6.17;5.57;;;;;;;19.98;43.12;96872.25;4965820;28;20200;-89
2022/12/13 01:21:58;;;;;;;6.43;5.83;;;;;;;19.58;43.20;96828.72;4952335;28;20321;-90
2022/12/13 01:24:25;;;;;;;5.33;4.83;;;;;;;19.71;43.40;96830.75;4937802;28;20519;-88
2022/12/13 01:26:52;;;;;;;5.97;5.37;;;;;;;19.09;43.36;96719.56;4935315;28;20208;-87
2022/12/13 01:29:22;;;;;;;5.77;5.23;;;;;;;18.77;43.08;96673.72;4979752;28;20226;-88
2022/12/13 01:31:54;;;;;;;5.40;4.90;;;;;;;19.90;42.77;96864.41;4928150;28;20208;-88
2022/12/13 01:34:23;;;;;;;6.00;5.50;;;;;;;19.73;43.12;96835.09;4941737;28;20220;-89
2022/12/13 01:36:55;;;;;;;5.77;5.27;;;;;;;18.89;42.87;96689.31;4936032;28;20208;-89
2022/12/13 01:39:24;;;;;;;6.37;5.77;;;;;;;19.15;42.87;96740.09;4951045;28;20284;-90
2022/12/13 01:41:58;;;;;;;6.23;5.63;;;;;;;18.97;42.87;96696.31;4961185;28;20252;-90
2022/12/13 01:45:05;;;;;;;5.80;5.30;;;;;;;19.99;43.08;96869.72;4950253;28;20229;-91
2022/12/13 01:47:36;;;;;;;5.47;4.97;;;;;;;19.51;43.12;96797.13;4965371;28;20205;-90
2022/12/13 01:50:06;;;;;;;6.40;5.80;;;;;;;19.06;43.12;96706.75;4964886;28;20227;-91
2022/12/13 01:52:33;;;;;;;6.47;5.87;;;;;;;19.52;43.13;96788.66;4960001;28;20234;-90
2022/12/13 01:55:00;;;;;;;6.27;5.67;;;;;;;18.28;43.07;96574.84;4969444;28;20655;-90
2022/12/13 01:57:29;;;;;;;6.47;5.87;;;;;;;19.99;43.36;96861.25;4934235;28;20208;-90
2022/12/13 01:59:55;;;;;;;6.73;6.13;;;;;;;19.58;42.96;96796.47;4961700;28;20683;-90
2022/12/13 02:02:22;;;;;;;6.10;5.50;;;;;;;19.93;43.33;96846.63;4969060;28;20203;-90
2022/12/13 02:04:50;;;;;;;6.53;5.93;;;;;;;19.47;43.08;96776.63;4967216;28;20229;-90
2022/12/13 02:07:17;;;;;;;6.67;6.07;;;;;;;18.79;43.05;96650.03;4973861;28;20359;-91
2022/12/13 02:09:51;;;;;;;6.43;5.83;;;;;;;19.98;43.07;96850.16;4955862;28;20219;-90
2022/12/13 02:12:24;;;;;;;5.97;5.47;;;;;;;19.51;43.02;96781.00;4970666;28;20648;-90
2022/12/13 02:14:59;;;;;;;6.10;5.53;;;;;;;19.55;43.01;96772.59;4936646;28;20234;-91
2022/12/13 02:17:53;;;;;;;6.13;5.63;;;;;;;19.98;42.97;96850.16;4938338;28;20668;-90
2022/12/13 02:20:28;;;;;;;6.03;5.50;;;;;;;19.99;42.87;96845.94;4953984;28;20288;-91
2022/12/13 02:23:13;;;;;;;6.17;5.40;;;;;;;19.99;42.66;96848.50;4967472;28;20330;-90
2022/12/13 02:25:43;;;;;;;6.77;6.13;;;;;;;19.99;42.83;96848.50;4970272;28;20202;-91
2022/12/13 02:28:40;;;;;;;6.37;5.77;;;;;;;19.99;42.62;96854.44;4969236;28;20747;-90
2022/12/13 02:31:18;;;;;;;7.13;6.43;;;;;;;19.30;42.74;96730.31;4963974;28;20252;-91
2022/12/13 02:33:45;;;;;;;6.40;5.80;;;;;;;20.01;42.74;96848.53;4954637;28;20234;-90
2022/12/13 02:36:18;;;;;;;6.83;6.17;;;;;;;18.80;42.88;96648.34;4954973;28;20208;-90
2022/12/13 02:38:48;;;;;;;6.60;6.00;;;;;;;19.30;42.78;96725.22;4962784;28;20208;-91
2022/12/13 02:41:23;;;;;;;6.47;5.87;;;;;;;19.54;42.91;96792.09;4952117;28;20222;-89
2022/12/13 02:44:09;;;;;;;6.20;5.60;;;;;;;17.28;42.95;96393.31;4966922;28;20660;-90
2022/12/13 02:46:51;;;;;;;6.67;6.03;;;;;;;19.15;43.22;96699.34;4952489;28;20214;-91
2022/12/13 02:49:18;;;;;;;6.73;6.13;;;;;;;19.57;43.02;96770.94;4978419;28;20294;-90
2022/12/13 02:51:44;;;;;;;6.47;5.87;;;;;;;19.18;42.87;96690.91;4925607;28;20199;-91
2022/12/13 02:54:11;;;;;;;7.20;6.50;;;;;;;19.30;43.53;96711.66;4980720;28;20228;-91
2022/12/13 02:56:38;;;;;;;7.33;6.63;;;;;;;19.32;42.64;96707.44;4947505;28;20624;-90
2022/12/13 02:59:10;;;;;;;7.33;6.63;;;;;;;14.46;42.85;95858.91;4960848;28;20205;-90
2022/12/13 03:01:48;;;;;;;6.20;5.60;;;;;;;19.99;42.62;96817.88;4965934;28;20259;-89
2022/12/13 03:08:04;;;;;;;5.93;5.43;;;;;;;19.54;43.28;96736.03;4953102;28;20219;-90
2022/12/13 03:11:13;;;;;;;6.43;5.83;;;;;;;19.47;42.96;96713.78;4962123;28;20247;-90
2022/12/13 03:13:58;;;;;;;6.90;6.23;;;;;;;18.60;42.93;96594.38;4955370;28;20302;-90
2022/12/13 03:16:35;;;;;;;7.00;6.30;;;;;;;19.99;42.88;96811.06;4974922;28;20214;-90
2022/12/13 03:19:05;;;;;;;7.20;6.50;;;;;;;19.51;42.92;96719.81;4955736;28;20211;-91
2022/12/13 03:21:46;;;;;;;6.73;6.03;;;;;;;18.85;42.61;96628.94;4944236;29;20201;-91
2022/12/13 03:24:18;;;;;;;7.13;6.43;;;;;;;19.35;42.91;96693.09;4940476;28;20228;-91
2022/12/13 03:26:47;;;;;;;6.63;5.93;;;;;;;19.50;42.84;96713.84;4968962;28;20664;-90
2022/12/13 03:29:14;;;;;;;7.27;6.57;;;;;;;19.07;43.09;96654.97;4950820;28;20231;-90
2022/12/13 03:31:50;;;;;;;6.97;6.27;;;;;;;19.62;43.16;96742.19;4974174;28;20274;-90
2022/12/13 03:34:16;;;;;;;6.87;6.17;;;;;;;19.47;42.98;96710.38;4935959;29;20239;-91
2022/12/13 03:36:48;;;;;;;7.10;6.40;;;;;;;19.10;43.03;96641.50;4954173;28;20222;-91
2022/12/13 03:39:26;;;;;;;7.20;6.50;;;;;;;19.53;43.19;96711.38;4957590;28;20291;-91
2022/12/13 03:41:52;;;;;;;7.47;6.70;;;;;;;19.10;43.20;96637.22;4968994;28;20223;-90
2022/12/13 03:44:19;;;;;;;7.43;6.60;;;;;;;18.16;43.00;96488.06;4929725;29;20599;-90
2022/12/13 03:46:46;;;;;;;7.30;6.60;;;;;;;19.49;43.07;96701.94;4965696;28;20326;-89
2022/12/13 03:49:12;;;;;;;7.60;6.90;;;;;;;18.89;43.07;96620.59;4944747;29;20223;-89
2022/12/13 03:51:43;;;;;;;7.47;6.70;;;;;;;18.52;43.15;96531.38;4950509;28;20220;-88
2022/12/13 03:54:12;;;;;;;6.50;5.90;;;;;;;18.62;43.01;96546.09;4962576;28;20228;-88
2022/12/13 03:56:39;;;;;;;7.10;6.40;;;;;;;19.27;43.23;96653.81;4971445;28;20200;-87
2022/12/13 03:59:06;;;;;;;6.90;6.20;;;;;;;19.24;43.00;96647.75;4955683;28;20583;-89
2022/12/13 04:01:33;;;;;;;6.50;5.90;;;;;;;19.50;42.75;96688.38;4967964;28;20226;-88
2022/12/13 04:03:59;;;;;;;7.03;6.33;;;;;;;18.20;43.00;96477.13;4965412;28;20319;-87
2022/12/13 04:06:26;;;;;;;6.63;6.03;;;;;;;19.10;42.69;96636.38;4963683;28;20218;-88
2022/12/13 04:08:58;;;;;;;7.53;6.80;;;;;;;19.50;42.75;96696.03;4952256;28;20215;-88
2022/12/13 04:14:11;;;;;;;7.03;6.33;;;;;;;18.90;42.70;96584.09;4965376;28;20729;-88
2022/12/13 04:16:51;;;;;;;6.97;6.27;;;;;;;19.35;42.80;96670.16;4966304;28;20238;-88
2022/12/13 04:19:18;;;;;;;7.30;6.40;;;;;;;17.84;43.06;96422.78;4950937;28;20208;-88
2022/12/13 04:21:53;;;;;;;7.40;6.70;;;;;;;19.53;43.05;96692.66;4961729;28;20200;-88
2022/12/13 04:24:21;;;;;;;7.07;6.33;;;;;;;17.83;42.94;96443.97;4957709;28;20715;-88
2022/12/13 04:26:57;;;;;;;7.00;6.30;;;;;;;19.96;43.07;96772.75;4966421;28;20219;-88
2022/12/13 04:29:26;;;;;;;7.50;6.80;;;;;;;20.01;43.14;96775.41;4947970;28;20659;-88
2022/12/13 04:32:00;;;;;;;8.13;6.90;;;;;;;18.54;43.15;96533.16;4946616;28;20290;-87
2022/12/13 04:34:27;;;;;;;7.20;6.50;;;;;;;19.53;43.01;96698.63;4941457;28;20234;-89
2022/12/13 04:37:02;;;;;;;7.50;6.70;;;;;;;19.78;42.96;96731.53;4969680;28;20203;-88
2022/12/13 04:39:28;;;;;;;7.43;6.73;;;;;;;19.33;43.09;96653.13;4980889;28;20242;-88
2022/12/13 04:42:00;;;;;;;7.70;6.90;;;;;;;19.40;43.10;96672.81;4966208;28;20687;-87
2022/12/13 04:44:26;;;;;;;6.87;6.17;;;;;;;18.78;43.11;96553.25;4936459;29;20232;-88
2022/12/13 04:47:01;;;;;;;6.17;5.53;;;;;;;18.93;42.81;96612.19;4955011;28;20652;-89
2022/12/13 04:49:29;;;;;;;7.10;5.90;;;;;;;18.44;42.96;96493.03;4932942;28;20283;-89
2022/12/13 04:51:58;;;;;;;7.10;6.37;;;;;;;19.83;43.00;96729.06;4950545;28;20220;-89
2022/12/13 04:54:29;;;;;;;7.73;6.93;;;;;;;19.27;42.99;96625.81;4964334;28;20778;-88
2022/12/13 04:57:06;;;;;;;7.77;6.97;;;;;;;19.85;42.52;96719.78;4929155;28;20216;-88
2022/12/13 04:59:33;;;;;;;7.90;7.10;;;;;;;19.75;42.70;96705.13;4944402;29;20295;-89
2022/12/13 05:01:59;;;;;;;8.10;7.30;;;;;;;19.62;42.70;96680.16;4960556;28;20208;-86
2022/12/13 05:04:26;;;;;;;7.93;7.13;;;;;;;19.25;42.58;96616.38;4961173;28;20234;-88
2022/12/13 05:06:59;;;;;;;7.60;6.87;;;;;;;18.48;42.76;96483.81;4968440;28;20584;-89
2022/12/13 05:09:25;;;;;;;8.03;6.40;;;;;;;18.75;42.74;96525.19;4967957;28;20282;-88
2022/12/13 05:11:52;;;;;;;7.40;6.70;;;;;;;19.63;42.83;96687.00;4956736;28;20271;-88
2022/12/13 05:14:27;;;;;;;7.53;6.73;;;;;;;19.39;42.80;96649.03;4947244;29;20239;-88
2022/12/13 05:16:54;;;;;;;7.87;7.07;;;;;;;17.25;42.85;96291.66;4970033;28;20210;-88
2022/12/13 05:19:20;;;;;;;7.37;6.67;;;;;;;19.92;42.77;96740.38;4970746;28;20204;-88
2022/12/13 05:21:56;;;;;;;7.80;6.70;;;;;;;20.02;43.00;96761.84;4960594;28;20204;-89
2022/12/13 05:24:27;;;;;;;7.07;6.47;;;;;;;19.47;42.77;96660.28;4943503;28;20224;-88
2022/12/13 05:26:53;;;;;;;7.37;6.63;;;;;;;18.96;42.64;96572.41;4942952;28;20226;-88
2022/12/13 05:29:21;;;;;;;7.37;6.13;;;;;;;19.58;42.74;96680.91;4961199;28;20236;-88
2022/12/13 05:31:47;;;;;;;7.67;6.87;;;;;;;19.79;42.58;96715.41;4958074;28;20287;-88
2022/12/13 05:34:14;;;;;;;7.17;6.13;;;;;;;19.64;42.79;96694.66;4960844;28;20267;-88
2022/12/13 05:36:41;;;;;;;7.27;6.47;;;;;;;19.72;42.86;96715.25;4959991;28;20299;-88
2022/12/13 05:39:07;;;;;;;7.03;6.40;;;;;;;16.97;42.86;96238.47;4957636;28;20204;-88
2022/12/13 05:41:54;;;;;;;7.13;6.43;;;;;;;19.16;42.47;96616.16;4968983;28;20203;-89
2022/12/13 05:44:27;;;;;;;7.30;6.60;;;;;;;19.63;42.48;96690.38;4950548;28;20287;-88
2022/12/13 05:46:54;;;;;;;7.50;6.80;;;;;;;19.47;42.18;96662.81;4970022;28;20208;-88
2022/12/13 05:49:20;;;;;;;8.60;6.97;;;;;;;18.76;42.00;96537.09;4954578;28;20207;-88
2022/12/13 05:51:47;;;;;;;7.57;6.77;;;;;;;17.56;42.28;96337.38;4963745;28;20229;-88
2022/12/13 05:54:14;;;;;;;7.73;6.87;;;;;;;19.61;42.12;96681.84;4958765;28;20368;-88
2022/12/13 05:56:40;;;;;;;7.63;6.83;;;;;;;19.43;42.16;96655.06;4943039;28;20208;-87
2022/12/13 05:59:07;;;;;;;7.33;6.63;;;;;;;20.06;42.14;96752.56;4943550;28;20734;-88
2022/12/13 06:01:34;;;;;;;7.80;6.67;;;;;;;19.81;42.47;96710.34;4959692;28;20287;-88
2022/12/13 06:04:00;;;;;;;7.17;6.47;;;;;;;19.69;42.49;96679.47;4960271;28;20255;-86
2022/12/13 06:06:27;;;;;;;7.93;7.13;;;;;;;19.10;42.51;96580.38;4962827;28;20713;-88
2022/12/13 06:08:53;;;;;;;7.50;6.70;;;;;;;19.56;42.81;96662.16;4967876;28;20204;-89
2022/12/13 06:11:20;;;;;;;7.43;6.73;;;;;;;19.30;42.60;96618.25;4961247;28;20227;-88
2022/12/13 06:13:57;;;;;;;8.23;6.57;;;;;;;18.98;42.49;96558.00;4937275;28;20772;-88
2022/12/13 06:16:26;;;;;;;7.20;6.50;;;;;;;17.91;42.84;96373.84;4959366;28;20212;-88
2022/12/13 06:18:54;;;;;;;7.80;7.00;;;;;;;19.54;42.65;96671.47;4965934;28;20209;-88
2022/12/13 06:21:30;;;;;;;8.70;7.00;;;;;;;19.84;42.60;96708.72;4929247;29;20262;-87
2022/12/13 06:24:11;;;;;;;7.57;6.87;;;;;;;20.10;43.03;96762.03;4958931;28;20657;-88
2022/12/13 06:26:37;;;;;;;7.90;7.10;;;;;;;19.23;42.75;96607.84;4965967;28;20616;-88
2022/12/13 06:29:04;;;;;;;7.37;6.60;;;;;;;19.44;43.15;96647.47;4948790;28;20634;-87
2022/12/13 06:31:31;;;;;;;7.40;6.57;;;;;;;19.20;43.04;96602.66;4960087;28;20622;-88
2022/12/13 06:34:02;;;;;;;6.10;5.50;;;;;;;17.70;43.18;96342.81;4962995;28;20263;-88
2022/12/13 06:36:43;;;;;;;6.93;5.40;;;;;;;18.94;43.10;96553.66;4952769;28;20214;-88
2022/12/13 06:39:10;;;;;;;6.43;5.73;;;;;;;18.90;43.15;96540.84;4932429;28;20205;-88
2022/12/13 06:41:36;;;;;;;6.20;5.60;;;;;;;19.44;43.28;96632.19;4975461;28;20207;-87
2022/12/13 06:44:03;;;;;;;7.27;5.90;;;;;;;19.16;43.13;96583.91;4963239;28;20232;-88
2022/12/13 06:46:30;;;;;;;6.33;5.73;;;;;;;19.65;43.20;96670.03;4962657;28;20231;-88
2022/12/13 06:48:57;;;;;;;7.07;5.77;;;;;;;18.71;43.16;96514.06;4968463;28;20223;-88
2022/12/13 06:51:23;;;;;;;7.00;5.33;;;;;;;18.96;43.28;96564.75;4972721;28;20238;-87
2022/12/13 06:53:58;;;;;;;6.30;5.70;;;;;;;19.71;43.13;96700.75;4933362;28;20243;-88
2022/12/13 06:56:26;;;;;;;9.57;8.57;;;;;;;19.59;42.73;96672.44;4932643;28;20208;-89
2022/12/13 06:58:53;;;;;;;19.93;15.50;;;;;;;18.85;39.40;96550.91;4950443;28;20648;-90
2022/12/13 07:01:27;;;;;;;22.73;18.10;;;;;;;19.70;36.84;96699.03;4952996;29;20211;-88
2022/12/13 07:04:04;;;;;;;21.80;17.97;;;;;;;19.63;35.05;96684.44;4940464;28;20266;-87
2022/12/13 07:06:50;;;;;;;26.63;19.90;;;;;;;20.06;33.77;96755.09;4940299;28;20709;-88
2022/12/13 07:09:17;;;;;;;26.80;20.07;;;;;;;19.20;33.65;96620.50;4944996;28;20208;-90
2022/12/13 07:11:43;;;;;;;24.77;18.80;;;;;;;19.55;34.69;96674.06;4934902;28;20306;-89
2022/12/13 07:14:17;;;;;;;24.63;18.30;;;;;;;18.19;36.04;96438.16;4939934;28;20227;-90
2022/12/13 07:16:44;;;;;;;24.23;17.63;;;;;;;20.03;37.64;96753.34;4944536;29;20208;-91
2022/12/13 07:19:10;;;;;;;23.90;17.27;;;;;;;19.38;37.70;96644.78;4947474;28;20243;-90
2022/12/13 07:21:49;;;;;;;27.40;17.03;;;;;;;19.67;38.46;96689.66;4976964;28;20200;-89
2022/12/13 07:24:16;;;;;;;19.77;16.40;;;;;;;19.46;38.23;96655.13;4967213;28;20220;-88
2022/12/13 07:26:42;;;;;;;21.37;15.37;;;;;;;19.52;38.47;96668.03;4949006;28;20239;-89
2022/12/13 07:29:09;;;;;;;18.83;15.70;;;;;;;19.78;39.01;96706.03;4952756;28;20319;-88
2022/12/13 07:31:36;;;;;;;19.70;15.03;;;;;;;19.62;38.96;96680.16;4957499;28;20722;-89
2022/12/13 07:34:03;;;;;;;19.60;15.53;;;;;;;18.86;39.64;96562.78;4941528;28;20710;-87
2022/12/13 07:36:29;;;;;;;19.20;14.47;;;;;;;18.65;39.76;96513.91;4952428;28;20738;-88
2022/12/13 07:38:56;;;;;;;23.00;15.13;;;;;;;18.83;39.76;96551.69;4955825;28;20199;-88
2022/12/13 07:41:23;;;;;;;17.73;13.70;;;;;;;19.54;40.19;96684.22;4943865;28;20274;-87
2022/12/13 07:43:54;;;;;;;17.53;14.00;;;;;;;18.95;40.22;96583.38;4932589;28;20699;-87
2022/12/13 07:46:22;;;;;;;16.93;13.43;;;;;;;19.24;40.30;96638.44;4959987;28;20684;-86
2022/12/13 07:49:02;;;;;;;14.40;12.23;;;;;;;19.40;40.55;96676.25;4937281;28;20211;-88
2022/12/13 07:51:29;;;;;;;16.40;13.53;;;;;;;20.05;40.09;96812.94;4956398;28;20219;-88
2022/12/13 07:53:56;;;;;;;21.00;13.07;;;;;;;19.23;40.42;96651.13;4948361;28;20609;-87
2022/12/13 07:56:22;;;;;;;18.13;13.10;;;;;;;19.52;40.44;96696.06;4938579;29;20255;-87
2022/12/13 07:58:49;;;;;;;14.90;13.17;;;;;;;20.03;40.81;96778.88;4941149;28;20672;-89
2022/12/13 08:01:17;;;;;;;17.63;12.37;;;;;;;19.71;40.10;96723.69;4943551;28;20212;-89
2022/12/13 08:03:45;;;;;;;14.77;11.97;;;;;;;19.43;40.72;96683.09;4940628;29;20220;-88
2022/12/13 08:06:12;;;;;;;15.20;11.77;;;;;;;19.13;40.87;96634.75;4926496;28;20227;-88
2022/12/13 08:08:39;;;;;;;12.83;11.27;;;;;;;19.13;40.76;96632.22;4941702;28;20204;-87
2022/12/13 08:11:10;;;;;;;15.60;11.90;;;;;;;19.52;41.09;96691.84;4927581;28;20302;-87
2022/12/13 08:13:37;;;;;;;15.87;12.00;;;;;;;19.84;41.08;96757.16;4934590;28;20231;-88
2022/12/13 08:16:05;;;;;;;14.53;11.30;;;;;;;19.38;40.93;96656.63;4950299;28;20713;-88
2022/12/13 08:18:52;;;;;;;14.13;11.13;;;;;;;19.65;41.01;96714.22;4942046;28;20211;-88
2022/12/13 08:21:31;;;;;;;16.23;11.63;;;;;;;19.37;41.10;96658.34;4934671;28;20235;-88
2022/12/13 08:24:18;;;;;;;14.90;12.23;;;;;;;19.41;40.95;96649.94;4935232;28;20231;-88
2022/12/13 08:26:45;;;;;;;11.37;10.13;;;;;;;19.61;41.11;96696.28;4961686;28;20207;-89
2022/12/13 08:29:11;;;;;;;12.00;9.63;;;;;;;19.59;41.23;96687.72;4944200;28;20642;-88
2022/12/13 08:31:47;;;;;;;14.33;10.50;;;;;;;19.61;41.27;96702.25;4939899;28;20263;-89
2022/12/13 08:34:14;;;;;;;12.83;10.17;;;;;;;19.16;41.40;96619.56;4931518;28;20703;-86
2022/12/13 08:36:41;;;;;;;12.60;10.07;;;;;;;19.61;41.57;96704.78;4941267;28;20208;-90
2022/12/13 08:39:08;;;;;;;13.10;10.27;;;;;;;19.45;41.41;96700.13;4946572;28;20215;-90
2022/12/13 08:41:34;;;;;;;11.60;10.00;;;;;;;19.37;41.17;96680.41;4931145;28;20203;-88
2022/12/13 08:44:05;;;;;;;12.27;9.83;;;;;;;19.58;41.44;96714.03;4929021;28;20315;-90
2022/12/13 08:46:32;;;;;;;11.80;9.40;;;;;;;19.62;41.46;96724.34;4944521;28;20234;-89
2022/12/13 08:48:59;;;;;;;13.30;9.50;;;;;;;18.71;41.44;96564.13;4963894;28;20217;-90
2022/12/13 08:51:25;;;;;;;11.77;9.53;;;;;;;19.39;41.67;96692.34;4943246;28;20247;-87
2022/12/13 08:53:57;;;;;;;11.37;9.00;;;;;;;19.59;41.68;96711.53;4948617;28;20351;-89
2022/12/13 08:56:36;;;;;;;10.03;8.50;;;;;;;19.67;41.51;96734.66;4937009;29;20293;-88
2022/12/13 08:59:03;;;;;;;12.20;8.97;;;;;;;19.82;41.71;96773.25;4945964;28;20690;-89
2022/12/13 09:01:30;;;;;;;11.23;8.47;;;;;;;19.78;41.29;96756.19;4939633;28;20209;-89
2022/12/13 09:03:56;;;;;;;9.60;8.60;;;;;;;19.95;41.53;96782.91;4942447;28;20857;-90
2022/12/13 09:06:23;;;;;;;11.17;8.67;;;;;;;18.83;41.62;96585.63;4953437;28;20582;-89
2022/12/13 09:08:51;;;;;;;9.37;8.23;;;;;;;19.57;41.54;96714.88;4952801;28;20259;-89
2022/12/13 09:11:18;;;;;;;9.43;8.13;;;;;;;19.12;41.66;96643.22;4950588;28;20283;-91
2022/12/13 09:13:50;;;;;;;10.30;8.30;;;;;;;19.77;41.95;96788.44;4943270;29;20315;-91
2022/12/13 09:16:22;;;;;;;8.40;7.50;;;;;;;19.42;41.98;96700.06;4942467;28;20209;-89
2022/12/13 09:18:51;;;;;;;10.10;8.17;;;;;;;19.20;41.60;96653.59;4957445;28;20679;-90
2022/12/13 09:21:21;;;;;;;8.10;7.30;;;;;;;19.74;41.62;96746.72;4951454;28;20207;-90
2022/12/13 09:23:57;;;;;;;10.53;7.43;;;;;;;19.44;41.72;96693.31;4963583;28;20305;-89
2022/12/13 09:26:27;;;;;;;9.10;7.80;;;;;;;19.46;41.88;96696.78;4948665;28;20650;-88
2022/12/13 09:28:54;;;;;;;8.73;7.30;;;;;;;19.66;41.86;96732.94;4948565;28;20231;-88
2022/12/13 09:31:20;;;;;;;9.43;7.60;;;;;;;19.93;42.01;96771.84;4927681;28;20283;-89
2022/12/13 09:33:47;;;;;;;7.40;6.70;;;;;;;19.47;42.08;96682.34;4934258;28;20230;-88
2022/12/13 09:36:17;;;;;;;8.20;7.37;;;;;;;19.76;42.32;96727.22;4950773;28;20214;-91
2022/12/13 09:38:44;;;;;;;8.60;6.43;;;;;;;19.59;42.27;96693.69;4937567;28;20207;-90
2022/12/13 09:41:18;;;;;;;8.17;6.97;;;;;;;20.15;42.51;96793.59;4937439;29;20215;-88
2022/12/13 09:43:51;;;;;;;9.23;6.20;;;;;;;19.34;42.81;96659.94;4962898;28;20223;-89
2022/12/13 09:46:26;;;;;;;7.00;6.20;;;;;;;19.74;42.71;96719.53;4938352;28;20207;-91
2022/12/13 09:49:01;;;;;;;6.53;5.77;;;;;;;19.95;42.66;96742.09;4939009;28;20230;-90
2022/12/13 09:51:28;;;;;;;7.10;6.40;;;;;;;19.25;42.65;96621.47;4963448;28;20210;-89
2022/12/13 09:54:17;;;;;;;7.83;6.50;;;;;;;19.23;42.89;96618.03;4953260;28;20236;-89
2022/12/13 09:56:49;;;;;;;7.10;6.40;;;;;;;19.49;42.72;96648.44;4940175;29;20200;-89
2022/12/13 09:59:27;;;;;;;8.30;6.30;;;;;;;19.53;42.77;96657.00;4967149;28;20219;-89
2022/12/13 10:01:54;;;;;;;8.27;6.17;;;;;;;19.29;42.53;96601.25;4940391;28;20210;-90
2022/12/13 10:04:21;;;;;;;7.13;6.30;;;;;;;19.89;42.76;96724.13;4947574;28;20227;-90
2022/12/13 10:06:52;;;;;;;7.97;6.40;;;;;;;19.43;42.58;96621.94;4935315;28;20214;-90
2022/12/13 10:09:18;;;;;;;6.70;5.70;;;;;;;19.66;42.51;96671.75;4934695;28;20223;-89
2022/12/13 10:11:49;;;;;;;7.00;6.30;;;;;;;19.40;42.38;96610.00;4944067;28;20227;-91
2022/12/13 10:14:30;;;;;;;6.80;6.10;;;;;;;20.21;42.53;96750.38;4951243;28;20834;-91
2022/12/13 10:16:59;;;;;;;7.47;5.77;;;;;;;18.24;42.62;96420.47;4943468;28;20227;-88
2022/12/13 10:19:34;;;;;;;7.47;6.10;;;;;;;19.53;42.43;96636.59;4969055;28;20200;-91
2022/12/13 10:22:01;;;;;;;11.60;5.73;;;;;;;19.69;42.41;96654.84;4953193;28;20210;-87
2022/12/13 10:24:30;;;;;;;6.43;5.67;;;;;;;19.33;42.41;96592.00;4939161;28;20254;-89
2022/12/13 10:27:28;;;;;;;7.10;5.63;;;;;;;19.06;42.51;96542.91;4932017;28;20583;-87
2022/12/13 10:29:59;;;;;;;6.37;5.70;;;;;;;20.19;42.26;96735.03;4951441;28;20239;-85
2022/12/13 10:32:25;;;;;;;6.40;5.60;;;;;;;19.57;42.33;96659.66;4966942;28;20224;-87
2022/12/13 10:35:25;;;;;;;6.63;5.97;;;;;;;20.18;42.26;96735.88;4935215;28;20676;-88
2022/12/13 10:37:53;;;;;;;6.13;5.53;;;;;;;19.81;42.23;96674.66;4965263;28;20263;-89
2022/12/13 10:40:32;;;;;;;6.90;5.67;;;;;;;20.18;42.42;96720.56;4938066;28;20204;-88
2022/12/13 10:43:12;;;;;;;7.67;5.40;;;;;;;19.41;42.56;96585.38;4957156;28;20595;-91
2022/12/13 10:45:40;;;;;;;6.33;5.27;;;;;;;19.40;42.54;96581.09;4938982;29;20603;-87
2022/12/13 10:48:19;;;;;;;5.83;5.10;;;;;;;19.62;42.78;96618.97;4936232;28;20246;-88
2022/12/13 10:50:55;;;;;;;7.20;4.83;;;;;;;19.66;42.85;96629.28;4952765;28;20208;-92
2022/12/13 10:53:22;;;;;;;5.80;5.03;;;;;;;19.97;42.60;96697.13;4923812;28;20692;-88
2022/12/13 10:55:53;;;;;;;6.47;5.20;;;;;;;19.73;42.66;96654.09;4926429;28;20282;-89
2022/12/13 10:58:20;;;;;;;6.17;5.20;;;;;;;19.51;42.75;96610.25;4937649;28;20754;-86
2022/12/13 11:00:48;;;;;;;6.00;5.23;;;;;;;19.64;42.71;96641.16;4933050;29;20245;-88
2022/12/13 11:03:31;;;;;;;6.27;5.40;;;;;;;19.55;42.55;96618.00;4938413;28;20227;-88
2022/12/13 11:06:02;;;;;;;10.10;4.83;;;;;;;19.12;42.47;96536.28;4961849;28;20212;-87
2022/12/13 11:08:29;;;;;;;7.93;5.60;;;;;;;19.71;42.49;96637.91;4958444;28;20208;-89
2022/12/13 11:11:00;;;;;;;8.77;5.43;;;;;;;20.21;42.59;96718.09;4931366;28;20214;-90
2022/12/13 11:13:39;;;;;;;8.10;5.80;;;;;;;19.13;42.42;96529.50;4936774;29;20255;-88
2022/12/13 11:16:31;;;;;;;7.07;5.13;;;;;;;20.22;42.69;96713.84;4962745;28;20226;-89
2022/12/13 11:19:02;;;;;;;8.13;5.43;;;;;;;19.38;42.47;96582.75;4975940;28;20662;-90
2022/12/13 11:21:31;;;;;;;7.60;5.30;;;;;;;19.12;42.36;96528.63;4930923;28;20655;-91
2022/12/13 11:24:00;;;;;;;10.67;5.03;;;;;;;19.57;42.33;96601.03;4929043;28;20239;-90
2022/12/13 11:26:27;;;;;;;9.00;5.37;;;;;;;19.55;42.32;96602.72;4942551;28;20695;-89
2022/12/13 11:29:15;;;;;;;8.23;5.50;;;;;;;20.20;42.45;96705.31;4953639;28;20211;-88
2022/12/13 11:31:53;;;;;;;6.97;4.80;;;;;;;20.20;42.19;96711.28;4972462;28;20689;-88
2022/12/13 11:34:42;;;;;;;7.40;5.50;;;;;;;20.20;42.25;96695.97;4936935;28;20227;-88
2022/12/13 11:37:32;;;;;;;10.70;5.60;;;;;;;20.20;42.32;96697.66;4962232;28;20588;-89
2022/12/13 11:40:21;;;;;;;6.37;5.00;;;;;;;19.84;42.42;96637.31;4962712;28;20203;-90
2022/12/13 11:43:29;;;;;;;7.67;4.77;;;;;;;19.72;42.31;96609.00;4954693;28;20248;-91
2022/12/13 11:45:57;;;;;;;6.67;4.90;;;;;;;19.18;42.13;96530.44;4963093;28;20579;-87
2022/12/13 11:48:33;;;;;;;7.63;5.30;;;;;;;20.18;42.26;96691.63;4941490;28;20210;-90
2022/12/13 11:50:59;;;;;;;5.57;4.97;;;;;;;19.31;41.96;96541.00;4964060;28;20299;-86
2022/12/13 11:53:51;;;;;;;4.83;4.33;;;;;;;20.18;42.29;96684.84;4936490;28;20255;-89
2022/12/13 11:56:18;;;;;;;8.60;4.87;;;;;;;20.18;42.57;96684.00;4972752;28;20215;-89